sensor_id;sensor_type;location;lat;lon;timestamp;P1;durP1;ratioP1;P2;durP2;ratioP2
20014;SDS011;61787;42.022;23.078;2022-12-10T00:00:02;21.27;;;8.47;;
20014;SDS011;61787;42.022;23.078;2022-12-10T00:02:08;28.17;;;8.83;;
20014;SDS011;61787;42.022;23.078;2022-12-10T00:03:10;21.33;;;8.03;;
20014;SDS011;61787;42.022;23.078;2022-12-10T00:04:11;27.83;;;9.03;;
20014;SDS011;61787;42.022;23.078;2022-12-10T00:05:14;22.93;;;8.97;;
20014;SDS011;61787;42.022;23.078;2022-12-10T00:06:17;20.93;;;8.13;;
20014;SDS011;61787;42.022;23.078;2022-12-10T00:07:20;19.43;;;7.53;;
20014;SDS011;61787;42.022;23.078;2022-12-10T00:08:21;27.83;;;9.13;;
20014;SDS011;61787;42.022;23.078;2022-12-10T00:09:23;20.20;;;8.00;;
20014;SDS011;61787;42.022;23.078;2022-12-10T00:10:25;23.90;;;9.07;;
20014;SDS011;61787;42.022;23.078;2022-12-10T00:11:26;30.90;;;9.47;;
20014;SDS011;61787;42.022;23.078;2022-12-10T00:12:28;25.13;;;9.13;;
20014;SDS011;61787;42.022;23.078;2022-12-10T00:13:30;21.93;;;8.90;;
20014;SDS011;61787;42.022;23.078;2022-12-10T00:14:32;21.60;;;8.33;;
20014;SDS011;61787;42.022;23.078;2022-12-10T00:15:34;29.57;;;8.47;;
20014;SDS011;61787;42.022;23.078;2022-12-10T00:16:36;22.77;;;7.97;;
20014;SDS011;61787;42.022;23.078;2022-12-10T00:17:38;27.17;;;8.90;;
20014;SDS011;61787;42.022;23.078;2022-12-10T00:18:40;27.77;;;8.97;;
20014;SDS011;61787;42.022;23.078;2022-12-10T00:19:42;28.33;;;9.07;;
20014;SDS011;61787;42.022;23.078;2022-12-10T00:20:44;26.87;;;8.03;;
20014;SDS011;61787;42.022;23.078;2022-12-10T00:21:45;23.63;;;8.83;;
20014;SDS011;61787;42.022;23.078;2022-12-10T00:22:47;24.80;;;8.97;;
20014;SDS011;61787;42.022;23.078;2022-12-10T00:23:49;25.00;;;9.77;;
20014;SDS011;61787;42.022;23.078;2022-12-10T00:24:51;29.23;;;8.27;;
20014;SDS011;61787;42.022;23.078;2022-12-10T00:25:52;25.73;;;7.83;;
20014;SDS011;61787;42.022;23.078;2022-12-10T00:26:54;32.07;;;9.17;;
20014;SDS011;61787;42.022;23.078;2022-12-10T00:27:55;18.13;;;8.10;;
20014;SDS011;61787;42.022;23.078;2022-12-10T00:28:57;26.80;;;8.80;;
20014;SDS011;61787;42.022;23.078;2022-12-10T00:30:01;17.47;;;7.13;;
20014;SDS011;61787;42.022;23.078;2022-12-10T00:31:06;22.23;;;8.67;;
20014;SDS011;61787;42.022;23.078;2022-12-10T00:32:09;20.57;;;8.10;;
20014;SDS011;61787;42.022;23.078;2022-12-10T00:33:11;22.80;;;7.30;;
20014;SDS011;61787;42.022;23.078;2022-12-10T00:34:13;23.27;;;8.93;;
20014;SDS011;61787;42.022;23.078;2022-12-10T00:35:14;29.90;;;8.67;;
20014;SDS011;61787;42.022;23.078;2022-12-10T00:36:17;22.30;;;8.80;;
20014;SDS011;61787;42.022;23.078;2022-12-10T00:37:21;23.47;;;9.03;;
20014;SDS011;61787;42.022;23.078;2022-12-10T00:38:22;22.10;;;8.53;;
20014;SDS011;61787;42.022;23.078;2022-12-10T00:39:24;23.83;;;7.00;;
20014;SDS011;61787;42.022;23.078;2022-12-10T00:40:25;26.67;;;8.57;;
20014;SDS011;61787;42.022;23.078;2022-12-10T00:41:27;24.83;;;8.93;;
20014;SDS011;61787;42.022;23.078;2022-12-10T00:42:29;23.83;;;8.43;;
20014;SDS011;61787;42.022;23.078;2022-12-10T00:43:31;25.80;;;8.50;;
20014;SDS011;61787;42.022;23.078;2022-12-10T00:44:32;27.13;;;8.07;;
20014;SDS011;61787;42.022;23.078;2022-12-10T00:45:34;23.27;;;9.07;;
20014;SDS011;61787;42.022;23.078;2022-12-10T00:46:35;25.47;;;8.53;;
20014;SDS011;61787;42.022;23.078;2022-12-10T00:47:37;30.40;;;9.37;;
20014;SDS011;61787;42.022;23.078;2022-12-10T00:48:39;24.67;;;8.50;;
20014;SDS011;61787;42.022;23.078;2022-12-10T00:49:41;21.20;;;7.27;;
20014;SDS011;61787;42.022;23.078;2022-12-10T00:50:43;21.90;;;8.40;;
20014;SDS011;61787;42.022;23.078;2022-12-10T00:51:44;25.70;;;8.63;;
20014;SDS011;61787;42.022;23.078;2022-12-10T00:52:46;22.67;;;8.20;;
20014;SDS011;61787;42.022;23.078;2022-12-10T00:53:48;30.07;;;8.77;;
20014;SDS011;61787;42.022;23.078;2022-12-10T00:54:51;23.57;;;8.20;;
20014;SDS011;61787;42.022;23.078;2022-12-10T00:55:53;23.80;;;8.70;;
20014;SDS011;61787;42.022;23.078;2022-12-10T00:56:55;22.70;;;8.00;;
20014;SDS011;61787;42.022;23.078;2022-12-10T00:57:56;19.33;;;7.97;;
20014;SDS011;61787;42.022;23.078;2022-12-10T00:58:58;21.77;;;8.03;;
20014;SDS011;61787;42.022;23.078;2022-12-10T01:00:00;20.47;;;8.27;;
20014;SDS011;61787;42.022;23.078;2022-12-10T01:01:09;23.87;;;8.10;;
20014;SDS011;61787;42.022;23.078;2022-12-10T01:02:19;23.53;;;8.60;;
20014;SDS011;61787;42.022;23.078;2022-12-10T01:03:22;21.83;;;8.33;;
20014;SDS011;61787;42.022;23.078;2022-12-10T01:04:23;28.30;;;7.83;;
20014;SDS011;61787;42.022;23.078;2022-12-10T01:05:25;24.07;;;8.10;;
20014;SDS011;61787;42.022;23.078;2022-12-10T01:06:28;25.27;;;9.17;;
20014;SDS011;61787;42.022;23.078;2022-12-10T01:07:32;24.03;;;8.30;;
20014;SDS011;61787;42.022;23.078;2022-12-10T01:08:33;25.70;;;9.50;;
20014;SDS011;61787;42.022;23.078;2022-12-10T01:09:35;34.77;;;9.30;;
20014;SDS011;61787;42.022;23.078;2022-12-10T01:10:37;27.23;;;8.47;;
20014;SDS011;61787;42.022;23.078;2022-12-10T01:11:39;26.97;;;8.97;;
20014;SDS011;61787;42.022;23.078;2022-12-10T01:12:42;19.43;;;9.07;;
20014;SDS011;61787;42.022;23.078;2022-12-10T01:13:44;21.53;;;8.70;;
20014;SDS011;61787;42.022;23.078;2022-12-10T01:14:47;22.77;;;8.77;;
20014;SDS011;61787;42.022;23.078;2022-12-10T01:15:49;24.07;;;8.70;;
20014;SDS011;61787;42.022;23.078;2022-12-10T01:16:53;27.73;;;9.23;;
20014;SDS011;61787;42.022;23.078;2022-12-10T01:17:56;28.73;;;8.87;;
20014;SDS011;61787;42.022;23.078;2022-12-10T01:18:58;25.27;;;9.07;;
20014;SDS011;61787;42.022;23.078;2022-12-10T01:20:00;26.87;;;8.90;;
20014;SDS011;61787;42.022;23.078;2022-12-10T01:21:06;20.10;;;8.20;;
20014;SDS011;61787;42.022;23.078;2022-12-10T01:22:09;24.63;;;8.30;;
20014;SDS011;61787;42.022;23.078;2022-12-10T01:23:10;29.00;;;8.90;;
20014;SDS011;61787;42.022;23.078;2022-12-10T01:24:12;23.83;;;8.43;;
20014;SDS011;61787;42.022;23.078;2022-12-10T01:25:13;23.93;;;8.60;;
20014;SDS011;61787;42.022;23.078;2022-12-10T01:26:16;24.77;;;8.73;;
20014;SDS011;61787;42.022;23.078;2022-12-10T01:27:20;24.70;;;8.17;;
20014;SDS011;61787;42.022;23.078;2022-12-10T01:28:22;20.73;;;8.50;;
20014;SDS011;61787;42.022;23.078;2022-12-10T01:29:23;23.20;;;7.87;;
20014;SDS011;61787;42.022;23.078;2022-12-10T01:30:25;24.70;;;8.40;;
20014;SDS011;61787;42.022;23.078;2022-12-10T01:31:28;24.33;;;8.70;;
20014;SDS011;61787;42.022;23.078;2022-12-10T01:32:32;23.63;;;9.30;;
20014;SDS011;61787;42.022;23.078;2022-12-10T01:33:33;24.27;;;8.70;;
20014;SDS011;61787;42.022;23.078;2022-12-10T01:34:36;19.63;;;8.87;;
20014;SDS011;61787;42.022;23.078;2022-12-10T01:35:38;28.30;;;9.33;;
20014;SDS011;61787;42.022;23.078;2022-12-10T01:36:40;24.93;;;9.20;;
20014;SDS011;61787;42.022;23.078;2022-12-10T01:37:44;27.60;;;9.53;;
20014;SDS011;61787;42.022;23.078;2022-12-10T01:38:45;26.57;;;9.27;;
20014;SDS011;61787;42.022;23.078;2022-12-10T01:39:47;27.20;;;8.97;;
20014;SDS011;61787;42.022;23.078;2022-12-10T01:40:48;30.80;;;9.03;;
20014;SDS011;61787;42.022;23.078;2022-12-10T01:41:54;26.33;;;8.60;;
20014;SDS011;61787;42.022;23.078;2022-12-10T01:42:58;23.50;;;8.50;;
20014;SDS011;61787;42.022;23.078;2022-12-10T01:44:02;18.77;;;7.93;;
20014;SDS011;61787;42.022;23.078;2022-12-10T01:45:11;28.00;;;8.67;;
20014;SDS011;61787;42.022;23.078;2022-12-10T01:46:13;26.37;;;9.37;;
20014;SDS011;61787;42.022;23.078;2022-12-10T01:47:15;19.73;;;8.70;;
20014;SDS011;61787;42.022;23.078;2022-12-10T01:48:16;31.07;;;9.53;;
20014;SDS011;61787;42.022;23.078;2022-12-10T01:49:19;26.50;;;9.47;;
20014;SDS011;61787;42.022;23.078;2022-12-10T01:50:23;27.27;;;8.47;;
20014;SDS011;61787;42.022;23.078;2022-12-10T01:51:25;20.07;;;8.07;;
20014;SDS011;61787;42.022;23.078;2022-12-10T01:52:29;27.17;;;9.17;;
20014;SDS011;61787;42.022;23.078;2022-12-10T01:53:31;21.83;;;8.40;;
20014;SDS011;61787;42.022;23.078;2022-12-10T01:54:34;27.83;;;9.10;;
20014;SDS011;61787;42.022;23.078;2022-12-10T01:56:59;33.63;;;9.23;;
20014;SDS011;61787;42.022;23.078;2022-12-10T01:58:03;24.13;;;9.30;;
20014;SDS011;61787;42.022;23.078;2022-12-10T01:59:04;29.23;;;8.87;;
20014;SDS011;61787;42.022;23.078;2022-12-10T02:00:07;24.97;;;9.23;;
20014;SDS011;61787;42.022;23.078;2022-12-10T02:01:10;28.00;;;8.60;;
20014;SDS011;61787;42.022;23.078;2022-12-10T02:03:33;25.80;;;8.97;;
20014;SDS011;61787;42.022;23.078;2022-12-10T02:06:53;24.67;;;8.93;;
20014;SDS011;61787;42.022;23.078;2022-12-10T02:08:03;24.33;;;8.10;;
20014;SDS011;61787;42.022;23.078;2022-12-10T02:12:06;19.17;;;8.00;;
20014;SDS011;61787;42.022;23.078;2022-12-10T02:15:49;21.90;;;8.73;;
20014;SDS011;61787;42.022;23.078;2022-12-10T02:16:57;24.83;;;8.83;;
20014;SDS011;61787;42.022;23.078;2022-12-10T02:18:04;24.20;;;8.93;;
20014;SDS011;61787;42.022;23.078;2022-12-10T02:20:13;22.63;;;9.30;;
20014;SDS011;61787;42.022;23.078;2022-12-10T02:21:17;25.67;;;9.40;;
20014;SDS011;61787;42.022;23.078;2022-12-10T02:22:22;25.43;;;8.67;;
20014;SDS011;61787;42.022;23.078;2022-12-10T02:23:33;25.43;;;9.43;;
20014;SDS011;61787;42.022;23.078;2022-12-10T02:24:48;25.03;;;10.50;;
20014;SDS011;61787;42.022;23.078;2022-12-10T02:27:29;21.17;;;9.03;;
20014;SDS011;61787;42.022;23.078;2022-12-10T02:29:56;25.07;;;9.43;;
20014;SDS011;61787;42.022;23.078;2022-12-10T02:30:59;24.33;;;9.43;;
20014;SDS011;61787;42.022;23.078;2022-12-10T02:33:06;21.63;;;9.23;;
20014;SDS011;61787;42.022;23.078;2022-12-10T02:34:09;20.97;;;7.87;;
20014;SDS011;61787;42.022;23.078;2022-12-10T02:35:14;25.90;;;8.57;;
20014;SDS011;61787;42.022;23.078;2022-12-10T02:36:20;23.53;;;9.47;;
20014;SDS011;61787;42.022;23.078;2022-12-10T02:37:29;24.13;;;9.17;;
20014;SDS011;61787;42.022;23.078;2022-12-10T02:38:35;24.87;;;9.17;;
20014;SDS011;61787;42.022;23.078;2022-12-10T02:39:40;28.63;;;9.30;;
20014;SDS011;61787;42.022;23.078;2022-12-10T02:40:48;20.97;;;8.60;;
20014;SDS011;61787;42.022;23.078;2022-12-10T02:41:54;20.93;;;9.20;;
20014;SDS011;61787;42.022;23.078;2022-12-10T02:42:56;24.43;;;9.67;;
20014;SDS011;61787;42.022;23.078;2022-12-10T02:43:58;25.27;;;9.20;;
20014;SDS011;61787;42.022;23.078;2022-12-10T02:45:03;22.17;;;9.57;;
20014;SDS011;61787;42.022;23.078;2022-12-10T02:46:05;19.60;;;9.57;;
20014;SDS011;61787;42.022;23.078;2022-12-10T02:47:08;24.37;;;8.97;;
20014;SDS011;61787;42.022;23.078;2022-12-10T02:48:12;22.10;;;9.77;;
20014;SDS011;61787;42.022;23.078;2022-12-10T02:49:14;23.17;;;9.33;;
20014;SDS011;61787;42.022;23.078;2022-12-10T02:50:18;26.17;;;9.47;;
20014;SDS011;61787;42.022;23.078;2022-12-10T02:51:21;20.03;;;9.50;;
20014;SDS011;61787;42.022;23.078;2022-12-10T02:52:23;21.17;;;9.23;;
20014;SDS011;61787;42.022;23.078;2022-12-10T02:53:26;21.53;;;9.80;;
20014;SDS011;61787;42.022;23.078;2022-12-10T02:54:35;24.40;;;9.13;;
20014;SDS011;61787;42.022;23.078;2022-12-10T02:58:47;18.83;;;8.27;;
20014;SDS011;61787;42.022;23.078;2022-12-10T03:00:16;15.17;;;7.20;;
20014;SDS011;61787;42.022;23.078;2022-12-10T03:04:22;18.77;;;7.73;;
20014;SDS011;61787;42.022;23.078;2022-12-10T03:05:33;17.23;;;8.00;;
20014;SDS011;61787;42.022;23.078;2022-12-10T03:06:42;15.03;;;7.40;;
20014;SDS011;61787;42.022;23.078;2022-12-10T03:09:26;19.93;;;7.07;;
20014;SDS011;61787;42.022;23.078;2022-12-10T03:10:39;17.93;;;8.20;;
20014;SDS011;61787;42.022;23.078;2022-12-10T03:11:46;16.90;;;7.23;;
20014;SDS011;61787;42.022;23.078;2022-12-10T03:12:59;16.10;;;7.20;;
20014;SDS011;61787;42.022;23.078;2022-12-10T03:14:24;19.83;;;7.90;;
20014;SDS011;61787;42.022;23.078;2022-12-10T03:15:27;18.40;;;8.13;;
20014;SDS011;61787;42.022;23.078;2022-12-10T03:16:33;17.07;;;8.00;;
20014;SDS011;61787;42.022;23.078;2022-12-10T03:17:37;18.33;;;7.90;;
20014;SDS011;61787;42.022;23.078;2022-12-10T03:18:41;14.77;;;8.03;;
20014;SDS011;61787;42.022;23.078;2022-12-10T03:19:47;20.63;;;8.33;;
20014;SDS011;61787;42.022;23.078;2022-12-10T03:20:52;15.13;;;8.03;;
20014;SDS011;61787;42.022;23.078;2022-12-10T03:21:59;18.53;;;8.07;;
20014;SDS011;61787;42.022;23.078;2022-12-10T03:23:07;15.13;;;7.87;;
20014;SDS011;61787;42.022;23.078;2022-12-10T03:24:13;15.93;;;7.50;;
20014;SDS011;61787;42.022;23.078;2022-12-10T03:25:18;19.67;;;7.70;;
20014;SDS011;61787;42.022;23.078;2022-12-10T03:26:22;19.53;;;7.20;;
20014;SDS011;61787;42.022;23.078;2022-12-10T03:27:25;18.87;;;7.70;;
20014;SDS011;61787;42.022;23.078;2022-12-10T03:28:35;17.93;;;7.83;;
20014;SDS011;61787;42.022;23.078;2022-12-10T03:29:43;13.67;;;7.53;;
20014;SDS011;61787;42.022;23.078;2022-12-10T03:30:48;15.53;;;8.70;;
20014;SDS011;61787;42.022;23.078;2022-12-10T03:31:52;13.93;;;7.70;;
20014;SDS011;61787;42.022;23.078;2022-12-10T03:32:55;14.27;;;8.47;;
20014;SDS011;61787;42.022;23.078;2022-12-10T03:33:57;17.87;;;8.83;;
20014;SDS011;61787;42.022;23.078;2022-12-10T03:34:59;15.80;;;8.13;;
20014;SDS011;61787;42.022;23.078;2022-12-10T03:36:03;17.73;;;7.97;;
20014;SDS011;61787;42.022;23.078;2022-12-10T03:37:06;17.93;;;8.77;;
20014;SDS011;61787;42.022;23.078;2022-12-10T03:38:08;12.70;;;8.03;;
20014;SDS011;61787;42.022;23.078;2022-12-10T03:39:11;22.40;;;8.57;;
20014;SDS011;61787;42.022;23.078;2022-12-10T03:40:14;21.43;;;8.30;;
20014;SDS011;61787;42.022;23.078;2022-12-10T03:41:15;18.40;;;9.20;;
20014;SDS011;61787;42.022;23.078;2022-12-10T03:42:17;20.67;;;8.90;;
20014;SDS011;61787;42.022;23.078;2022-12-10T03:43:20;16.57;;;8.83;;
20014;SDS011;61787;42.022;23.078;2022-12-10T03:44:29;19.33;;;8.53;;
20014;SDS011;61787;42.022;23.078;2022-12-10T03:45:35;20.87;;;8.80;;
20014;SDS011;61787;42.022;23.078;2022-12-10T03:46:36;17.60;;;8.77;;
20014;SDS011;61787;42.022;23.078;2022-12-10T03:47:38;20.27;;;8.97;;
20014;SDS011;61787;42.022;23.078;2022-12-10T03:48:40;14.53;;;8.90;;
20014;SDS011;61787;42.022;23.078;2022-12-10T03:49:42;16.83;;;8.73;;
20014;SDS011;61787;42.022;23.078;2022-12-10T03:50:44;18.80;;;9.53;;
20014;SDS011;61787;42.022;23.078;2022-12-10T03:51:45;20.60;;;9.17;;
20014;SDS011;61787;42.022;23.078;2022-12-10T03:52:47;22.47;;;9.10;;
20014;SDS011;61787;42.022;23.078;2022-12-10T03:53:48;22.73;;;9.37;;
20014;SDS011;61787;42.022;23.078;2022-12-10T03:54:50;18.37;;;9.40;;
20014;SDS011;61787;42.022;23.078;2022-12-10T03:55:52;18.20;;;8.73;;
20014;SDS011;61787;42.022;23.078;2022-12-10T03:56:55;21.43;;;9.10;;
20014;SDS011;61787;42.022;23.078;2022-12-10T03:57:56;18.57;;;9.23;;
20014;SDS011;61787;42.022;23.078;2022-12-10T03:58:58;18.63;;;9.00;;
20014;SDS011;61787;42.022;23.078;2022-12-10T03:59:59;16.83;;;10.07;;
20014;SDS011;61787;42.022;23.078;2022-12-10T04:01:02;16.87;;;9.33;;
20014;SDS011;61787;42.022;23.078;2022-12-10T04:02:06;21.97;;;9.67;;
20014;SDS011;61787;42.022;23.078;2022-12-10T04:03:08;15.57;;;9.23;;
20014;SDS011;61787;42.022;23.078;2022-12-10T04:04:10;14.37;;;9.07;;
20014;SDS011;61787;42.022;23.078;2022-12-10T04:05:12;16.83;;;8.90;;
20014;SDS011;61787;42.022;23.078;2022-12-10T04:06:15;14.53;;;8.80;;
20014;SDS011;61787;42.022;23.078;2022-12-10T04:07:18;13.20;;;7.97;;
20014;SDS011;61787;42.022;23.078;2022-12-10T04:08:20;16.67;;;8.67;;
20014;SDS011;61787;42.022;23.078;2022-12-10T04:09:22;18.03;;;8.60;;
20014;SDS011;61787;42.022;23.078;2022-12-10T04:10:23;15.73;;;8.00;;
20014;SDS011;61787;42.022;23.078;2022-12-10T04:11:25;21.73;;;8.43;;
20014;SDS011;61787;42.022;23.078;2022-12-10T04:12:27;13.13;;;7.13;;
20014;SDS011;61787;42.022;23.078;2022-12-10T04:13:30;12.30;;;6.13;;
20014;SDS011;61787;42.022;23.078;2022-12-10T04:14:51;14.30;;;7.73;;
20014;SDS011;61787;42.022;23.078;2022-12-10T04:16:11;19.40;;;8.57;;
20014;SDS011;61787;42.022;23.078;2022-12-10T04:17:28;13.23;;;7.30;;
20014;SDS011;61787;42.022;23.078;2022-12-10T04:18:32;17.97;;;8.00;;
20014;SDS011;61787;42.022;23.078;2022-12-10T04:19:34;17.37;;;6.97;;
20014;SDS011;61787;42.022;23.078;2022-12-10T04:20:36;14.50;;;6.33;;
20014;SDS011;61787;42.022;23.078;2022-12-10T04:21:56;11.60;;;6.70;;
20014;SDS011;61787;42.022;23.078;2022-12-10T04:23:16;12.77;;;6.07;;
20014;SDS011;61787;42.022;23.078;2022-12-10T04:24:36;13.33;;;6.63;;
20014;SDS011;61787;42.022;23.078;2022-12-10T04:25:57;13.40;;;6.07;;
20014;SDS011;61787;42.022;23.078;2022-12-10T04:27:20;11.43;;;6.03;;
20014;SDS011;61787;42.022;23.078;2022-12-10T04:28:41;11.17;;;6.10;;
20014;SDS011;61787;42.022;23.078;2022-12-10T04:29:44;13.93;;;7.40;;
20014;SDS011;61787;42.022;23.078;2022-12-10T04:30:45;12.17;;;5.97;;
20014;SDS011;61787;42.022;23.078;2022-12-10T04:31:47;18.60;;;6.17;;
20014;SDS011;61787;42.022;23.078;2022-12-10T04:32:48;15.13;;;6.60;;
20014;SDS011;61787;42.022;23.078;2022-12-10T04:33:50;11.83;;;6.23;;
20014;SDS011;61787;42.022;23.078;2022-12-10T04:34:51;13.33;;;6.17;;
20014;SDS011;61787;42.022;23.078;2022-12-10T04:35:53;13.57;;;6.20;;
20014;SDS011;61787;42.022;23.078;2022-12-10T04:36:56;11.40;;;5.27;;
20014;SDS011;61787;42.022;23.078;2022-12-10T04:37:58;15.13;;;5.67;;
20014;SDS011;61787;42.022;23.078;2022-12-10T04:39:00;11.90;;;6.03;;
20014;SDS011;61787;42.022;23.078;2022-12-10T04:40:02;14.53;;;5.93;;
20014;SDS011;61787;42.022;23.078;2022-12-10T04:41:04;14.80;;;5.37;;
20014;SDS011;61787;42.022;23.078;2022-12-10T04:42:16;9.90;;;5.53;;
20014;SDS011;61787;42.022;23.078;2022-12-10T04:43:18;13.40;;;5.40;;
20014;SDS011;61787;42.022;23.078;2022-12-10T04:44:20;10.73;;;5.17;;
20014;SDS011;61787;42.022;23.078;2022-12-10T04:45:22;9.90;;;5.10;;
20014;SDS011;61787;42.022;23.078;2022-12-10T04:46:23;12.00;;;5.27;;
20014;SDS011;61787;42.022;23.078;2022-12-10T04:47:25;12.00;;;5.40;;
20014;SDS011;61787;42.022;23.078;2022-12-10T04:48:26;9.17;;;4.60;;
20014;SDS011;61787;42.022;23.078;2022-12-10T04:49:28;10.23;;;4.47;;
20014;SDS011;61787;42.022;23.078;2022-12-10T04:50:29;10.63;;;5.20;;
20014;SDS011;61787;42.022;23.078;2022-12-10T04:51:31;16.27;;;4.93;;
20014;SDS011;61787;42.022;23.078;2022-12-10T04:52:33;11.23;;;5.70;;
20014;SDS011;61787;42.022;23.078;2022-12-10T04:53:34;13.73;;;5.40;;
20014;SDS011;61787;42.022;23.078;2022-12-10T04:54:36;12.23;;;5.87;;
20014;SDS011;61787;42.022;23.078;2022-12-10T04:55:39;13.07;;;4.90;;
20014;SDS011;61787;42.022;23.078;2022-12-10T04:56:41;10.67;;;5.20;;
20014;SDS011;61787;42.022;23.078;2022-12-10T04:57:43;12.37;;;5.67;;
20014;SDS011;61787;42.022;23.078;2022-12-10T04:58:45;14.27;;;5.23;;
20014;SDS011;61787;42.022;23.078;2022-12-10T04:59:46;11.30;;;5.50;;
20014;SDS011;61787;42.022;23.078;2022-12-10T05:00:48;14.40;;;6.07;;
20014;SDS011;61787;42.022;23.078;2022-12-10T05:01:49;12.43;;;5.20;;
20014;SDS011;61787;42.022;23.078;2022-12-10T05:02:51;8.67;;;5.33;;
20014;SDS011;61787;42.022;23.078;2022-12-10T05:03:53;10.13;;;5.63;;
20014;SDS011;61787;42.022;23.078;2022-12-10T05:04:55;8.67;;;5.40;;
20014;SDS011;61787;42.022;23.078;2022-12-10T05:06:00;11.50;;;5.70;;
20014;SDS011;61787;42.022;23.078;2022-12-10T05:07:09;10.53;;;4.70;;
20014;SDS011;61787;42.022;23.078;2022-12-10T05:08:11;8.60;;;5.20;;
20014;SDS011;61787;42.022;23.078;2022-12-10T05:09:13;12.20;;;5.70;;
20014;SDS011;61787;42.022;23.078;2022-12-10T05:10:15;11.90;;;5.27;;
20014;SDS011;61787;42.022;23.078;2022-12-10T05:11:17;10.40;;;5.17;;
20014;SDS011;61787;42.022;23.078;2022-12-10T05:12:20;14.20;;;5.83;;
20014;SDS011;61787;42.022;23.078;2022-12-10T05:13:22;13.53;;;5.37;;
20014;SDS011;61787;42.022;23.078;2022-12-10T05:14:23;16.23;;;5.80;;
20014;SDS011;61787;42.022;23.078;2022-12-10T05:15:25;12.47;;;5.87;;
20014;SDS011;61787;42.022;23.078;2022-12-10T05:16:28;11.07;;;5.97;;
20014;SDS011;61787;42.022;23.078;2022-12-10T05:17:30;12.90;;;5.70;;
20014;SDS011;61787;42.022;23.078;2022-12-10T05:18:32;11.10;;;5.87;;
20014;SDS011;61787;42.022;23.078;2022-12-10T05:19:34;14.50;;;5.80;;
20014;SDS011;61787;42.022;23.078;2022-12-10T05:20:35;10.80;;;5.27;;
20014;SDS011;61787;42.022;23.078;2022-12-10T05:21:37;10.70;;;5.43;;
20014;SDS011;61787;42.022;23.078;2022-12-10T05:22:57;15.53;;;5.80;;
20014;SDS011;61787;42.022;23.078;2022-12-10T05:24:17;23.30;;;7.27;;
20014;SDS011;61787;42.022;23.078;2022-12-10T05:25:19;15.47;;;7.10;;
20014;SDS011;61787;42.022;23.078;2022-12-10T05:26:22;15.83;;;7.30;;
20014;SDS011;61787;42.022;23.078;2022-12-10T05:27:25;14.10;;;7.30;;
20014;SDS011;61787;42.022;23.078;2022-12-10T05:28:27;16.50;;;7.30;;
20014;SDS011;61787;42.022;23.078;2022-12-10T05:29:29;11.33;;;6.80;;
20014;SDS011;61787;42.022;23.078;2022-12-10T05:30:34;17.67;;;7.07;;
20014;SDS011;61787;42.022;23.078;2022-12-10T05:31:36;17.80;;;7.73;;
20014;SDS011;61787;42.022;23.078;2022-12-10T05:32:37;17.37;;;8.33;;
20014;SDS011;61787;42.022;23.078;2022-12-10T05:33:39;18.27;;;7.20;;
20014;SDS011;61787;42.022;23.078;2022-12-10T05:34:41;17.67;;;8.30;;
20014;SDS011;61787;42.022;23.078;2022-12-10T05:35:42;13.07;;;6.47;;
20014;SDS011;61787;42.022;23.078;2022-12-10T05:36:44;15.43;;;7.20;;
20014;SDS011;61787;42.022;23.078;2022-12-10T05:37:46;14.23;;;7.23;;
20014;SDS011;61787;42.022;23.078;2022-12-10T05:38:47;11.80;;;6.70;;
20014;SDS011;61787;42.022;23.078;2022-12-10T05:39:49;12.93;;;7.03;;
20014;SDS011;61787;42.022;23.078;2022-12-10T05:40:51;15.50;;;7.73;;
20014;SDS011;61787;42.022;23.078;2022-12-10T05:41:57;16.47;;;8.03;;
20014;SDS011;61787;42.022;23.078;2022-12-10T05:42:59;16.50;;;8.17;;
20014;SDS011;61787;42.022;23.078;2022-12-10T05:44:00;17.73;;;7.13;;
20014;SDS011;61787;42.022;23.078;2022-12-10T05:45:02;19.50;;;7.43;;
20014;SDS011;61787;42.022;23.078;2022-12-10T05:46:05;19.60;;;7.97;;
20014;SDS011;61787;42.022;23.078;2022-12-10T05:47:10;16.13;;;6.87;;
20014;SDS011;61787;42.022;23.078;2022-12-10T05:48:12;15.80;;;7.83;;
20014;SDS011;61787;42.022;23.078;2022-12-10T05:49:15;12.40;;;7.63;;
20014;SDS011;61787;42.022;23.078;2022-12-10T05:50:16;15.23;;;7.57;;
20014;SDS011;61787;42.022;23.078;2022-12-10T05:51:19;12.07;;;7.03;;
20014;SDS011;61787;42.022;23.078;2022-12-10T05:52:23;18.03;;;7.50;;
20014;SDS011;61787;42.022;23.078;2022-12-10T05:53:24;22.77;;;7.87;;
20014;SDS011;61787;42.022;23.078;2022-12-10T05:54:26;15.53;;;7.40;;
20014;SDS011;61787;42.022;23.078;2022-12-10T05:55:28;15.13;;;7.90;;
20014;SDS011;61787;42.022;23.078;2022-12-10T05:56:30;11.70;;;7.43;;
20014;SDS011;61787;42.022;23.078;2022-12-10T05:57:32;19.43;;;8.17;;
20014;SDS011;61787;42.022;23.078;2022-12-10T05:58:34;12.43;;;6.93;;
20014;SDS011;61787;42.022;23.078;2022-12-10T05:59:36;15.63;;;7.90;;
20014;SDS011;61787;42.022;23.078;2022-12-10T06:00:41;21.10;;;8.03;;
20014;SDS011;61787;42.022;23.078;2022-12-10T06:01:43;16.83;;;7.07;;
20014;SDS011;61787;42.022;23.078;2022-12-10T06:02:44;16.43;;;7.30;;
20014;SDS011;61787;42.022;23.078;2022-12-10T06:03:46;11.90;;;6.43;;
20014;SDS011;61787;42.022;23.078;2022-12-10T06:04:48;16.67;;;7.23;;
20014;SDS011;61787;42.022;23.078;2022-12-10T06:05:50;13.60;;;6.20;;
20014;SDS011;61787;42.022;23.078;2022-12-10T06:06:51;17.97;;;6.57;;
20014;SDS011;61787;42.022;23.078;2022-12-10T06:07:53;14.07;;;6.57;;
20014;SDS011;61787;42.022;23.078;2022-12-10T06:08:55;15.23;;;6.83;;
20014;SDS011;61787;42.022;23.078;2022-12-10T06:09:57;13.87;;;6.80;;
20014;SDS011;61787;42.022;23.078;2022-12-10T06:11:05;10.50;;;6.13;;
20014;SDS011;61787;42.022;23.078;2022-12-10T06:12:11;18.70;;;7.03;;
20014;SDS011;61787;42.022;23.078;2022-12-10T06:13:13;14.93;;;6.77;;
20014;SDS011;61787;42.022;23.078;2022-12-10T06:14:14;14.33;;;6.93;;
20014;SDS011;61787;42.022;23.078;2022-12-10T06:15:16;14.53;;;6.50;;
20014;SDS011;61787;42.022;23.078;2022-12-10T06:16:17;14.10;;;6.93;;
20014;SDS011;61787;42.022;23.078;2022-12-10T06:17:19;10.03;;;6.20;;
20014;SDS011;61787;42.022;23.078;2022-12-10T06:18:20;17.73;;;6.47;;
20014;SDS011;61787;42.022;23.078;2022-12-10T06:19:22;16.00;;;6.77;;
20014;SDS011;61787;42.022;23.078;2022-12-10T06:20:24;19.90;;;7.37;;
20014;SDS011;61787;42.022;23.078;2022-12-10T06:21:27;12.57;;;6.10;;
20014;SDS011;61787;42.022;23.078;2022-12-10T06:22:28;13.50;;;6.00;;
20014;SDS011;61787;42.022;23.078;2022-12-10T06:23:30;12.40;;;5.97;;
20014;SDS011;61787;42.022;23.078;2022-12-10T06:24:32;15.90;;;5.87;;
20014;SDS011;61787;42.022;23.078;2022-12-10T06:25:37;13.73;;;6.10;;
20014;SDS011;61787;42.022;23.078;2022-12-10T06:26:41;14.73;;;6.10;;
20014;SDS011;61787;42.022;23.078;2022-12-10T06:27:43;12.37;;;6.13;;
20014;SDS011;61787;42.022;23.078;2022-12-10T06:28:45;10.20;;;4.97;;
20014;SDS011;61787;42.022;23.078;2022-12-10T06:29:47;14.80;;;6.33;;
20014;SDS011;61787;42.022;23.078;2022-12-10T06:30:48;12.53;;;6.10;;
20014;SDS011;61787;42.022;23.078;2022-12-10T06:31:50;13.90;;;6.00;;
20014;SDS011;61787;42.022;23.078;2022-12-10T06:32:52;13.10;;;5.90;;
20014;SDS011;61787;42.022;23.078;2022-12-10T06:33:53;14.97;;;6.60;;
20014;SDS011;61787;42.022;23.078;2022-12-10T06:34:55;12.87;;;6.10;;
20014;SDS011;61787;42.022;23.078;2022-12-10T06:35:57;17.80;;;6.00;;